sensor_id;sensor_type;location;lat;lon;timestamp;temperature;humidity
580;DHT22;276;48.392;9.950;2022-10-16T00:01:28;16.60;99.90
580;DHT22;276;48.392;9.950;2022-10-16T00:03:57;16.70;99.90
580;DHT22;276;48.392;9.950;2022-10-16T00:06:24;16.70;99.90
580;DHT22;276;48.392;9.950;2022-10-16T00:08:50;16.80;99.90
580;DHT22;276;48.392;9.950;2022-10-16T00:11:17;16.80;99.90
580;DHT22;276;48.392;9.950;2022-10-16T00:13:45;16.80;99.90
580;DHT22;276;48.392;9.950;2022-10-16T00:16:11;16.80;99.90
580;DHT22;276;48.392;9.950;2022-10-16T00:18:40;16.80;99.90
580;DHT22;276;48.392;9.950;2022-10-16T00:21:12;16.90;99.90
580;DHT22;276;48.392;9.950;2022-10-16T00:23:38;16.80;99.90
580;DHT22;276;48.392;9.950;2022-10-16T00:26:09;16.80;99.90
580;DHT22;276;48.392;9.950;2022-10-16T00:28:36;16.90;99.90
580;DHT22;276;48.392;9.950;2022-10-16T00:31:06;16.90;99.90
580;DHT22;276;48.392;9.950;2022-10-16T00:33:33;16.90;99.90
580;DHT22;276;48.392;9.950;2022-10-16T00:36:01;16.90;99.90
580;DHT22;276;48.392;9.950;2022-10-16T00:38:27;16.90;99.90
580;DHT22;276;48.392;9.950;2022-10-16T00:40:53;16.90;99.90
580;DHT22;276;48.392;9.950;2022-10-16T00:43:43;16.90;99.90
580;DHT22;276;48.392;9.950;2022-10-16T00:49:28;16.80;99.90
580;DHT22;276;48.392;9.950;2022-10-16T00:54:04;16.80;99.90
580;DHT22;276;48.392;9.950;2022-10-16T00:56:34;16.80;99.90
580;DHT22;276;48.392;9.950;2022-10-16T00:59:03;16.80;99.90
580;DHT22;276;48.392;9.950;2022-10-16T01:01:30;16.70;99.90
580;DHT22;276;48.392;9.950;2022-10-16T01:03:55;16.70;99.90
580;DHT22;276;48.392;9.950;2022-10-16T01:06:43;16.60;99.90
580;DHT22;276;48.392;9.950;2022-10-16T01:09:13;16.60;99.90
580;DHT22;276;48.392;9.950;2022-10-16T01:11:44;16.60;99.90
580;DHT22;276;48.392;9.950;2022-10-16T01:14:21;16.60;99.90
580;DHT22;276;48.392;9.950;2022-10-16T01:16:58;16.50;99.90
580;DHT22;276;48.392;9.950;2022-10-16T01:22:00;16.50;99.90
580;DHT22;276;48.392;9.950;2022-10-16T01:24:37;16.50;99.90
580;DHT22;276;48.392;9.950;2022-10-16T01:32:16;16.50;99.90
580;DHT22;276;48.392;9.950;2022-10-16T01:34:53;16.50;99.90
580;DHT22;276;48.392;9.950;2022-10-16T01:37:41;16.50;99.90
580;DHT22;276;48.392;9.950;2022-10-16T01:40:17;16.50;99.90
580;DHT22;276;48.392;9.950;2022-10-16T01:42:50;16.50;99.90
580;DHT22;276;48.392;9.950;2022-10-16T01:45:19;16.50;99.90
580;DHT22;276;48.392;9.950;2022-10-16T01:47:50;16.40;99.90
580;DHT22;276;48.392;9.950;2022-10-16T01:50:19;16.40;99.90
580;DHT22;276;48.392;9.950;2022-10-16T01:52:49;16.40;99.90
580;DHT22;276;48.392;9.950;2022-10-16T01:55:22;16.50;99.90
580;DHT22;276;48.392;9.950;2022-10-16T01:57:54;16.50;99.90
580;DHT22;276;48.392;9.950;2022-10-16T02:00:21;16.50;99.90
580;DHT22;276;48.392;9.950;2022-10-16T02:02:49;16.50;99.90
580;DHT22;276;48.392;9.950;2022-10-16T02:05:36;16.50;99.90
580;DHT22;276;48.392;9.950;2022-10-16T02:08:06;16.50;99.90
580;DHT22;276;48.392;9.950;2022-10-16T02:10:32;16.50;99.90
580;DHT22;276;48.392;9.950;2022-10-16T02:13:06;16.50;99.90
580;DHT22;276;48.392;9.950;2022-10-16T02:15:34;16.50;99.90
580;DHT22;276;48.392;9.950;2022-10-16T02:18:04;16.50;99.90
580;DHT22;276;48.392;9.950;2022-10-16T02:20:36;16.50;99.90
580;DHT22;276;48.392;9.950;2022-10-16T02:23:04;16.50;99.90
580;DHT22;276;48.392;9.950;2022-10-16T02:25:37;16.50;99.90
580;DHT22;276;48.392;9.950;2022-10-16T02:28:09;16.50;99.90
580;DHT22;276;48.392;9.950;2022-10-16T02:30:51;16.50;99.90
580;DHT22;276;48.392;9.950;2022-10-16T02:33:21;16.50;99.90
580;DHT22;276;48.392;9.950;2022-10-16T02:35:49;16.50;99.90
580;DHT22;276;48.392;9.950;2022-10-16T02:38:19;16.50;99.90
580;DHT22;276;48.392;9.950;2022-10-16T02:40:46;16.50;99.90
580;DHT22;276;48.392;9.950;2022-10-16T02:43:13;16.50;99.90
580;DHT22;276;48.392;9.950;2022-10-16T02:45:39;16.50;99.90
580;DHT22;276;48.392;9.950;2022-10-16T02:48:07;16.50;99.90
580;DHT22;276;48.392;9.950;2022-10-16T02:50:35;16.50;99.90
580;DHT22;276;48.392;9.950;2022-10-16T02:53:05;16.50;99.90
580;DHT22;276;48.392;9.950;2022-10-16T02:55:31;16.50;99.90
580;DHT22;276;48.392;9.950;2022-10-16T02:57:59;16.40;99.90
580;DHT22;276;48.392;9.950;2022-10-16T03:00:24;16.50;99.90
580;DHT22;276;48.392;9.950;2022-10-16T03:02:50;16.50;99.90
580;DHT22;276;48.392;9.950;2022-10-16T03:05:16;16.50;99.90
580;DHT22;276;48.392;9.950;2022-10-16T03:07:42;16.50;99.90
580;DHT22;276;48.392;9.950;2022-10-16T03:10:08;16.50;99.90
580;DHT22;276;48.392;9.950;2022-10-16T03:12:36;16.50;99.90
580;DHT22;276;48.392;9.950;2022-10-16T03:15:02;16.50;99.90
580;DHT22;276;48.392;9.950;2022-10-16T03:17:27;16.50;99.90
580;DHT22;276;48.392;9.950;2022-10-16T03:19:55;16.50;99.90
580;DHT22;276;48.392;9.950;2022-10-16T03:22:23;16.50;99.90
580;DHT22;276;48.392;9.950;2022-10-16T03:24:49;16.40;99.90
580;DHT22;276;48.392;9.950;2022-10-16T03:27:17;16.50;99.90
580;DHT22;276;48.392;9.950;2022-10-16T03:29:45;16.50;99.90
580;DHT22;276;48.392;9.950;2022-10-16T03:32:10;16.40;99.90
580;DHT22;276;48.392;9.950;2022-10-16T03:34:38;16.40;99.90
580;DHT22;276;48.392;9.950;2022-10-16T03:37:04;16.40;99.90
580;DHT22;276;48.392;9.950;2022-10-16T03:39:32;16.40;99.90
580;DHT22;276;48.392;9.950;2022-10-16T03:41:57;16.40;99.90
580;DHT22;276;48.392;9.950;2022-10-16T03:44:23;16.40;99.90
580;DHT22;276;48.392;9.950;2022-10-16T03:46:51;16.40;99.90
580;DHT22;276;48.392;9.950;2022-10-16T03:49:16;16.40;99.90
580;DHT22;276;48.392;9.950;2022-10-16T03:51:46;16.40;99.90
580;DHT22;276;48.392;9.950;2022-10-16T03:54:14;16.40;99.90
580;DHT22;276;48.392;9.950;2022-10-16T03:56:42;16.40;99.90
580;DHT22;276;48.392;9.950;2022-10-16T03:59:08;16.40;99.90
580;DHT22;276;48.392;9.950;2022-10-16T04:01:33;16.40;99.90
580;DHT22;276;48.392;9.950;2022-10-16T04:04:01;16.40;99.90
580;DHT22;276;48.392;9.950;2022-10-16T04:06:27;16.40;99.90
580;DHT22;276;48.392;9.950;2022-10-16T04:08:55;16.40;99.90
580;DHT22;276;48.392;9.950;2022-10-16T04:11:21;16.40;99.90
580;DHT22;276;48.392;9.950;2022-10-16T04:13:49;16.30;99.90
580;DHT22;276;48.392;9.950;2022-10-16T04:16:15;16.40;99.90
580;DHT22;276;48.392;9.950;2022-10-16T04:18:40;16.30;99.90
580;DHT22;276;48.392;9.950;2022-10-16T04:21:10;16.30;99.90
580;DHT22;276;48.392;9.950;2022-10-16T04:23:38;16.30;99.90
580;DHT22;276;48.392;9.950;2022-10-16T04:26:08;16.30;99.90
580;DHT22;276;48.392;9.950;2022-10-16T04:28:35;16.30;99.90
580;DHT22;276;48.392;9.950;2022-10-16T04:31:04;16.30;99.90
580;DHT22;276;48.392;9.950;2022-10-16T04:33:34;16.30;99.90
580;DHT22;276;48.392;9.950;2022-10-16T04:36:03;16.30;99.90
580;DHT22;276;48.392;9.950;2022-10-16T04:38:33;16.30;99.90
580;DHT22;276;48.392;9.950;2022-10-16T04:41:01;16.30;99.90
580;DHT22;276;48.392;9.950;2022-10-16T04:43:26;16.30;99.90
580;DHT22;276;48.392;9.950;2022-10-16T04:45:54;16.30;99.90
580;DHT22;276;48.392;9.950;2022-10-16T04:48:22;16.30;99.90
580;DHT22;276;48.392;9.950;2022-10-16T04:50:51;16.30;99.90
580;DHT22;276;48.392;9.950;2022-10-16T04:53:16;16.30;99.90
580;DHT22;276;48.392;9.950;2022-10-16T04:55:46;16.20;99.90
580;DHT22;276;48.392;9.950;2022-10-16T04:58:12;16.20;99.90
580;DHT22;276;48.392;9.950;2022-10-16T05:00:39;16.20;99.90
580;DHT22;276;48.392;9.950;2022-10-16T05:03:05;16.20;99.90
580;DHT22;276;48.392;9.950;2022-10-16T05:05:34;16.20;99.90
580;DHT22;276;48.392;9.950;2022-10-16T05:08:00;16.20;99.90
580;DHT22;276;48.392;9.950;2022-10-16T05:10:26;16.10;99.90
580;DHT22;276;48.392;9.950;2022-10-16T05:12:51;16.10;99.90
580;DHT22;276;48.392;9.950;2022-10-16T05:15:22;16.10;99.90
580;DHT22;276;48.392;9.950;2022-10-16T05:17:53;16.10;99.90
580;DHT22;276;48.392;9.950;2022-10-16T05:20:21;16.10;99.90
580;DHT22;276;48.392;9.950;2022-10-16T05:22:47;16.10;99.90
580;DHT22;276;48.392;9.950;2022-10-16T05:25:15;16.10;99.90
580;DHT22;276;48.392;9.950;2022-10-16T05:27:41;16.10;99.90
580;DHT22;276;48.392;9.950;2022-10-16T05:30:11;16.10;99.90
580;DHT22;276;48.392;9.950;2022-10-16T05:32:37;16.10;99.90
580;DHT22;276;48.392;9.950;2022-10-16T05:35:03;16.10;99.90
580;DHT22;276;48.392;9.950;2022-10-16T05:37:28;16.00;99.90
580;DHT22;276;48.392;9.950;2022-10-16T05:39:56;16.00;99.90
580;DHT22;276;48.392;9.950;2022-10-16T05:42:24;16.00;99.90
580;DHT22;276;48.392;9.950;2022-10-16T05:44:50;16.10;99.90
580;DHT22;276;48.392;9.950;2022-10-16T05:47:18;16.10;99.90
580;DHT22;276;48.392;9.950;2022-10-16T05:49:48;16.10;99.90
580;DHT22;276;48.392;9.950;2022-10-16T05:52:16;16.00;99.90
580;DHT22;276;48.392;9.950;2022-10-16T05:54:45;16.00;99.90
580;DHT22;276;48.392;9.950;2022-10-16T05:57:10;16.00;99.90
580;DHT22;276;48.392;9.950;2022-10-16T05:59:36;16.00;99.90
580;DHT22;276;48.392;9.950;2022-10-16T06:02:07;16.10;99.90
580;DHT22;276;48.392;9.950;2022-10-16T06:04:33;16.10;99.90
580;DHT22;276;48.392;9.950;2022-10-16T06:06:59;16.10;99.90
580;DHT22;276;48.392;9.950;2022-10-16T06:09:27;16.10;99.90
580;DHT22;276;48.392;9.950;2022-10-16T06:11:55;16.10;99.90
580;DHT22;276;48.392;9.950;2022-10-16T06:14:21;16.10;99.90
580;DHT22;276;48.392;9.950;2022-10-16T06:16:46;16.10;99.90
580;DHT22;276;48.392;9.950;2022-10-16T06:19:14;16.20;99.90
580;DHT22;276;48.392;9.950;2022-10-16T06:21:41;16.20;99.90
580;DHT22;276;48.392;9.950;2022-10-16T06:24:08;16.20;99.90
580;DHT22;276;48.392;9.950;2022-10-16T06:26:35;16.20;99.90
580;DHT22;276;48.392;9.950;2022-10-16T06:29:02;16.20;99.90
580;DHT22;276;48.392;9.950;2022-10-16T06:31:30;16.30;99.90
580;DHT22;276;48.392;9.950;2022-10-16T06:33:59;16.30;99.90
580;DHT22;276;48.392;9.950;2022-10-16T06:36:27;16.30;99.90
580;DHT22;276;48.392;9.950;2022-10-16T06:38:56;16.30;99.90
580;DHT22;276;48.392;9.950;2022-10-16T06:41:22;16.40;99.90
580;DHT22;276;48.392;9.950;2022-10-16T06:43:48;16.40;99.90
580;DHT22;276;48.392;9.950;2022-10-16T06:46:20;16.40;99.90
580;DHT22;276;48.392;9.950;2022-10-16T06:48:49;16.50;99.90
580;DHT22;276;48.392;9.950;2022-10-16T06:51:19;16.50;99.90
580;DHT22;276;48.392;9.950;2022-10-16T06:53:47;16.60;99.90
580;DHT22;276;48.392;9.950;2022-10-16T06:56:18;16.60;99.90
580;DHT22;276;48.392;9.950;2022-10-16T06:58:48;16.70;99.90
580;DHT22;276;48.392;9.950;2022-10-16T07:01:16;16.70;99.90
580;DHT22;276;48.392;9.950;2022-10-16T07:03:44;16.80;99.90
580;DHT22;276;48.392;9.950;2022-10-16T07:06:12;16.80;99.90
580;DHT22;276;48.392;9.950;2022-10-16T07:08:40;16.80;99.90
580;DHT22;276;48.392;9.950;2022-10-16T07:11:11;16.90;99.90
580;DHT22;276;48.392;9.950;2022-10-16T07:13:38;16.90;99.90
580;DHT22;276;48.392;9.950;2022-10-16T07:16:08;17.00;99.90
580;DHT22;276;48.392;9.950;2022-10-16T07:18:35;17.00;99.90
580;DHT22;276;48.392;9.950;2022-10-16T07:21:12;17.00;99.90
580;DHT22;276;48.392;9.950;2022-10-16T07:23:40;17.10;99.90
580;DHT22;276;48.392;9.950;2022-10-16T07:26:06;17.10;99.90
580;DHT22;276;48.392;9.950;2022-10-16T07:28:37;17.20;99.90
580;DHT22;276;48.392;9.950;2022-10-16T07:31:09;17.20;99.90
580;DHT22;276;48.392;9.950;2022-10-16T07:33:36;17.30;99.90
580;DHT22;276;48.392;9.950;2022-10-16T07:36:09;17.20;99.90
580;DHT22;276;48.392;9.950;2022-10-16T07:38:39;17.20;99.90
580;DHT22;276;48.392;9.950;2022-10-16T07:41:07;17.10;99.90
580;DHT22;276;48.392;9.950;2022-10-16T07:43:35;17.10;99.90
580;DHT22;276;48.392;9.950;2022-10-16T07:46:00;17.00;99.90
580;DHT22;276;48.392;9.950;2022-10-16T07:48:31;17.00;99.90
580;DHT22;276;48.392;9.950;2022-10-16T07:51:03;17.00;99.90
580;DHT22;276;48.392;9.950;2022-10-16T07:53:32;16.90;99.90
580;DHT22;276;48.392;9.950;2022-10-16T07:56:02;16.90;99.90
580;DHT22;276;48.392;9.950;2022-10-16T07:58:31;17.00;99.90
580;DHT22;276;48.392;9.950;2022-10-16T08:01:03;17.00;99.90
580;DHT22;276;48.392;9.950;2022-10-16T08:03:28;17.10;99.90
580;DHT22;276;48.392;9.950;2022-10-16T08:05:57;17.10;99.90
580;DHT22;276;48.392;9.950;2022-10-16T08:08:23;17.20;99.90
580;DHT22;276;48.392;9.950;2022-10-16T08:10:49;17.20;99.90
580;DHT22;276;48.392;9.950;2022-10-16T08:13:15;17.30;99.90
580;DHT22;276;48.392;9.950;2022-10-16T08:15:44;17.30;99.90
580;DHT22;276;48.392;9.950;2022-10-16T08:18:12;17.40;99.90
580;DHT22;276;48.392;9.950;2022-10-16T08:20:38;17.40;99.90
580;DHT22;276;48.392;9.950;2022-10-16T08:23:03;17.50;99.90
580;DHT22;276;48.392;9.950;2022-10-16T08:25:29;17.50;99.90
580;DHT22;276;48.392;9.950;2022-10-16T08:27:55;17.60;99.90
580;DHT22;276;48.392;9.950;2022-10-16T08:30:24;17.60;99.90
580;DHT22;276;48.392;9.950;2022-10-16T08:32:52;17.70;99.90
580;DHT22;276;48.392;9.950;2022-10-16T08:35:20;17.70;99.90
580;DHT22;276;48.392;9.950;2022-10-16T08:37:48;17.70;99.90
580;DHT22;276;48.392;9.950;2022-10-16T08:40:20;17.80;99.90
580;DHT22;276;48.392;9.950;2022-10-16T08:43:30;17.80;99.90
580;DHT22;276;48.392;9.950;2022-10-16T08:48:42;17.80;99.90
580;DHT22;276;48.392;9.950;2022-10-16T08:51:12;17.90;99.90
580;DHT22;276;48.392;9.950;2022-10-16T08:53:54;17.90;99.90
580;DHT22;276;48.392;9.950;2022-10-16T08:56:26;18.00;99.90
580;DHT22;276;48.392;9.950;2022-10-16T08:58:53;18.00;99.90
580;DHT22;276;48.392;9.950;2022-10-16T09:01:21;18.00;99.90
580;DHT22;276;48.392;9.950;2022-10-16T09:07:02;18.10;99.90
580;DHT22;276;48.392;9.950;2022-10-16T09:20:50;18.00;99.90
580;DHT22;276;48.392;9.950;2022-10-16T09:23:26;17.90;99.90
580;DHT22;276;48.392;9.950;2022-10-16T09:25:55;17.90;99.90
580;DHT22;276;48.392;9.950;2022-10-16T09:28:23;18.00;99.90
580;DHT22;276;48.392;9.950;2022-10-16T09:30:51;18.00;99.90
580;DHT22;276;48.392;9.950;2022-10-16T09:33:19;18.00;99.90
580;DHT22;276;48.392;9.950;2022-10-16T09:35:51;18.00;99.90
580;DHT22;276;48.392;9.950;2022-10-16T09:38:33;18.00;99.90
580;DHT22;276;48.392;9.950;2022-10-16T09:41:19;18.00;99.90
580;DHT22;276;48.392;9.950;2022-10-16T09:43:47;17.90;99.90
580;DHT22;276;48.392;9.950;2022-10-16T09:46:35;17.90;99.90
580;DHT22;276;48.392;9.950;2022-10-16T09:49:17;18.00;99.90
580;DHT22;276;48.392;9.950;2022-10-16T09:51:46;18.00;99.90
580;DHT22;276;48.392;9.950;2022-10-16T09:54:19;18.10;99.90
580;DHT22;276;48.392;9.950;2022-10-16T09:56:48;18.20;99.90
580;DHT22;276;48.392;9.950;2022-10-16T09:59:21;18.40;99.90
580;DHT22;276;48.392;9.950;2022-10-16T10:01:53;18.50;99.90
580;DHT22;276;48.392;9.950;2022-10-16T10:04:22;18.60;99.90
580;DHT22;276;48.392;9.950;2022-10-16T10:06:52;18.70;99.90
580;DHT22;276;48.392;9.950;2022-10-16T10:09:37;18.80;99.90
580;DHT22;276;48.392;9.950;2022-10-16T10:12:05;18.80;99.90
580;DHT22;276;48.392;9.950;2022-10-16T10:14:32;18.70;99.90
580;DHT22;276;48.392;9.950;2022-10-16T10:17:16;18.70;99.90
580;DHT22;276;48.392;9.950;2022-10-16T10:19:51;18.70;99.90
580;DHT22;276;48.392;9.950;2022-10-16T10:41:32;19.30;99.90
580;DHT22;276;48.392;9.950;2022-10-16T10:44:52;19.30;99.90
580;DHT22;276;48.392;9.950;2022-10-16T10:50:25;19.40;99.90
580;DHT22;276;48.392;9.950;2022-10-16T11:01:09;19.10;99.90
580;DHT22;276;48.392;9.950;2022-10-16T11:17:25;19.20;99.90
580;DHT22;276;48.392;9.950;2022-10-16T11:19:54;19.20;99.90
580;DHT22;276;48.392;9.950;2022-10-16T11:22:36;19.20;99.90
580;DHT22;276;48.392;9.950;2022-10-16T11:30:57;19.60;99.90
580;DHT22;276;48.392;9.950;2022-10-16T11:33:30;19.70;99.90
580;DHT22;276;48.392;9.950;2022-10-16T11:38:47;20.00;99.90
580;DHT22;276;48.392;9.950;2022-10-16T11:46:48;20.60;99.90
580;DHT22;276;48.392;9.950;2022-10-16T11:49:20;20.90;99.90
580;DHT22;276;48.392;9.950;2022-10-16T11:57:19;21.70;99.90
580;DHT22;276;48.392;9.950;2022-10-16T12:10:34;22.10;99.90
580;DHT22;276;48.392;9.950;2022-10-16T12:13:05;22.20;99.90
580;DHT22;276;48.392;9.950;2022-10-16T12:15:33;22.30;99.90
580;DHT22;276;48.392;9.950;2022-10-16T12:18:01;22.40;99.90
580;DHT22;276;48.392;9.950;2022-10-16T12:20:33;22.50;99.90
580;DHT22;276;48.392;9.950;2022-10-16T12:23:06;22.50;99.90
580;DHT22;276;48.392;9.950;2022-10-16T12:25:37;22.60;99.90
580;DHT22;276;48.392;9.950;2022-10-16T12:28:20;22.60;99.90
580;DHT22;276;48.392;9.950;2022-10-16T12:30:57;22.60;99.90
580;DHT22;276;48.392;9.950;2022-10-16T12:33:32;22.60;99.90
580;DHT22;276;48.392;9.950;2022-10-16T12:36:01;22.60;99.90
580;DHT22;276;48.392;9.950;2022-10-16T12:38:32;22.60;99.90
580;DHT22;276;48.392;9.950;2022-10-16T12:41:11;22.60;99.90
580;DHT22;276;48.392;9.950;2022-10-16T12:48:37;22.50;99.90
580;DHT22;276;48.392;9.950;2022-10-16T12:57:19;22.30;99.90
580;DHT22;276;48.392;9.950;2022-10-16T13:16:21;22.50;99.90
580;DHT22;276;48.392;9.950;2022-10-16T13:27:41;22.60;99.90
580;DHT22;276;48.392;9.950;2022-10-16T13:30:29;22.50;99.90
580;DHT22;276;48.392;9.950;2022-10-16T13:35:34;22.40;99.90
580;DHT22;276;48.392;9.950;2022-10-16T13:40:55;22.40;99.90
580;DHT22;276;48.392;9.950;2022-10-16T13:48:44;22.50;99.90
580;DHT22;276;48.392;9.950;2022-10-16T13:51:18;22.50;99.90
580;DHT22;276;48.392;9.950;2022-10-16T13:53:46;22.50;99.90
580;DHT22;276;48.392;9.950;2022-10-16T13:56:14;22.50;99.90
580;DHT22;276;48.392;9.950;2022-10-16T13:58:41;22.50;99.90
580;DHT22;276;48.392;9.950;2022-10-16T14:01:42;22.40;99.90
580;DHT22;276;48.392;9.950;2022-10-16T14:04:13;22.30;99.90
580;DHT22;276;48.392;9.950;2022-10-16T14:06:44;22.20;99.90
580;DHT22;276;48.392;9.950;2022-10-16T14:09:31;22.20;99.90
580;DHT22;276;48.392;9.950;2022-10-16T14:12:07;22.20;99.90
580;DHT22;276;48.392;9.950;2022-10-16T14:14:48;22.20;99.90
580;DHT22;276;48.392;9.950;2022-10-16T14:17:28;22.20;99.90
580;DHT22;276;48.392;9.950;2022-10-16T14:19:57;22.20;99.90
580;DHT22;276;48.392;9.950;2022-10-16T14:22:35;22.10;99.90
580;DHT22;276;48.392;9.950;2022-10-16T14:27:56;22.00;99.90
580;DHT22;276;48.392;9.950;2022-10-16T14:30:22;22.10;99.90
580;DHT22;276;48.392;9.950;2022-10-16T14:35:46;22.20;99.90
580;DHT22;276;48.392;9.950;2022-10-16T14:38:19;22.20;99.90
580;DHT22;276;48.392;9.950;2022-10-16T14:40:49;22.30;99.90
580;DHT22;276;48.392;9.950;2022-10-16T14:46:03;22.20;99.90
580;DHT22;276;48.392;9.950;2022-10-16T14:48:32;22.20;99.90
580;DHT22;276;48.392;9.950;2022-10-16T14:50:58;22.20;99.90
580;DHT22;276;48.392;9.950;2022-10-16T14:53:24;22.20;99.90
580;DHT22;276;48.392;9.950;2022-10-16T14:55:50;22.20;99.90
580;DHT22;276;48.392;9.950;2022-10-16T14:58:21;22.10;99.90
580;DHT22;276;48.392;9.950;2022-10-16T15:00:51;22.10;99.90
580;DHT22;276;48.392;9.950;2022-10-16T15:03:17;22.10;99.90
580;DHT22;276;48.392;9.950;2022-10-16T15:05:49;22.10;99.90
580;DHT22;276;48.392;9.950;2022-10-16T15:08:15;22.10;99.90
580;DHT22;276;48.392;9.950;2022-10-16T15:10:43;22.10;99.90
580;DHT22;276;48.392;9.950;2022-10-16T15:13:12;22.10;99.90
580;DHT22;276;48.392;9.950;2022-10-16T15:15:46;22.10;99.90
580;DHT22;276;48.392;9.950;2022-10-16T15:18:15;22.10;99.90
580;DHT22;276;48.392;9.950;2022-10-16T15:20:47;22.10;99.90
580;DHT22;276;48.392;9.950;2022-10-16T15:23:14;22.10;99.90
580;DHT22;276;48.392;9.950;2022-10-16T15:25:51;22.10;99.90
580;DHT22;276;48.392;9.950;2022-10-16T15:28:18;22.00;99.90
580;DHT22;276;48.392;9.950;2022-10-16T15:30:49;22.00;99.90
580;DHT22;276;48.392;9.950;2022-10-16T15:33:17;21.90;99.90
580;DHT22;276;48.392;9.950;2022-10-16T15:35:47;21.90;99.90
580;DHT22;276;48.392;9.950;2022-10-16T15:38:13;21.80;99.90
580;DHT22;276;48.392;9.950;2022-10-16T15:40:42;21.80;99.90
580;DHT22;276;48.392;9.950;2022-10-16T15:43:10;21.80;99.90
580;DHT22;276;48.392;9.950;2022-10-16T15:45:37;21.70;99.90
580;DHT22;276;48.392;9.950;2022-10-16T15:48:05;21.60;99.90
580;DHT22;276;48.392;9.950;2022-10-16T15:50:32;21.60;99.90
580;DHT22;276;48.392;9.950;2022-10-16T15:53:07;21.50;99.90
580;DHT22;276;48.392;9.950;2022-10-16T15:55:38;21.40;99.90
580;DHT22;276;48.392;9.950;2022-10-16T15:58:04;21.20;99.90
580;DHT22;276;48.392;9.950;2022-10-16T16:00:32;21.10;99.90
580;DHT22;276;48.392;9.950;2022-10-16T16:02:59;20.90;99.90
580;DHT22;276;48.392;9.950;2022-10-16T16:05:27;20.90;99.90
580;DHT22;276;48.392;9.950;2022-10-16T16:07:58;20.80;99.90
580;DHT22;276;48.392;9.950;2022-10-16T16:10:24;20.80;99.90
580;DHT22;276;48.392;9.950;2022-10-16T16:12:54;20.70;99.90
580;DHT22;276;48.392;9.950;2022-10-16T16:15:22;20.60;99.90
580;DHT22;276;48.392;9.950;2022-10-16T16:17:48;20.50;99.90
580;DHT22;276;48.392;9.950;2022-10-16T16:20:14;20.50;99.90
580;DHT22;276;48.392;9.950;2022-10-16T16:22:40;20.40;99.90
580;DHT22;276;48.392;9.950;2022-10-16T16:25:08;20.40;99.90
580;DHT22;276;48.392;9.950;2022-10-16T16:27:34;20.30;99.90
580;DHT22;276;48.392;9.950;2022-10-16T16:30:01;20.20;99.90
580;DHT22;276;48.392;9.950;2022-10-16T16:32:31;20.10;99.90
580;DHT22;276;48.392;9.950;2022-10-16T16:34:59;20.10;99.90
580;DHT22;276;48.392;9.950;2022-10-16T16:37:24;20.10;99.90
580;DHT22;276;48.392;9.950;2022-10-16T16:39:52;20.10;99.90
580;DHT22;276;48.392;9.950;2022-10-16T16:42:28;20.10;99.90
580;DHT22;276;48.392;9.950;2022-10-16T16:44:59;20.00;99.90
580;DHT22;276;48.392;9.950;2022-10-16T16:47:27;20.00;99.90
580;DHT22;276;48.392;9.950;2022-10-16T16:49:53;19.90;99.90
580;DHT22;276;48.392;9.950;2022-10-16T16:52:18;19.80;99.90
580;DHT22;276;48.392;9.950;2022-10-16T16:54:50;19.70;99.90
580;DHT22;276;48.392;9.950;2022-10-16T16:57:24;19.60;99.90
580;DHT22;276;48.392;9.950;2022-10-16T16:59:54;19.60;99.90
580;DHT22;276;48.392;9.950;2022-10-16T17:02:22;19.60;99.90
580;DHT22;276;48.392;9.950;2022-10-16T17:04:50;19.60;99.90
580;DHT22;276;48.392;9.950;2022-10-16T17:07:21;19.50;99.90
580;DHT22;276;48.392;9.950;2022-10-16T17:09:51;19.40;99.90
580;DHT22;276;48.392;9.950;2022-10-16T17:12:17;19.30;99.90
580;DHT22;276;48.392;9.950;2022-10-16T17:14:45;19.20;99.90
580;DHT22;276;48.392;9.950;2022-10-16T17:17:13;19.20;99.90
580;DHT22;276;48.392;9.950;2022-10-16T17:19:38;19.10;99.90
580;DHT22;276;48.392;9.950;2022-10-16T17:22:08;19.10;99.90
580;DHT22;276;48.392;9.950;2022-10-16T17:24:36;19.10;99.90
580;DHT22;276;48.392;9.950;2022-10-16T17:27:04;19.10;99.90
580;DHT22;276;48.392;9.950;2022-10-16T17:29:34;19.10;99.90
580;DHT22;276;48.392;9.950;2022-10-16T17:32:02;19.00;99.90
580;DHT22;276;48.392;9.950;2022-10-16T17:34:28;19.00;99.90
580;DHT22;276;48.392;9.950;2022-10-16T17:36:54;18.90;99.90
580;DHT22;276;48.392;9.950;2022-10-16T17:39:20;18.90;99.90
580;DHT22;276;48.392;9.950;2022-10-16T17:41:46;18.90;99.90
580;DHT22;276;48.392;9.950;2022-10-16T17:44:15;18.90;99.90
580;DHT22;276;48.392;9.950;2022-10-16T17:46:49;18.80;99.90
580;DHT22;276;48.392;9.950;2022-10-16T17:49:18;18.80;99.90
580;DHT22;276;48.392;9.950;2022-10-16T17:51:44;18.70;99.90
580;DHT22;276;48.392;9.950;2022-10-16T17:54:13;18.60;99.90
580;DHT22;276;48.392;9.950;2022-10-16T17:56:41;18.60;99.90
580;DHT22;276;48.392;9.950;2022-10-16T17:59:13;18.60;99.90
580;DHT22;276;48.392;9.950;2022-10-16T18:01:39;18.50;99.90
580;DHT22;276;48.392;9.950;2022-10-16T18:04:14;18.50;99.90
580;DHT22;276;48.392;9.950;2022-10-16T18:06:46;18.50;99.90
580;DHT22;276;48.392;9.950;2022-10-16T18:09:16;18.50;99.90
580;DHT22;276;48.392;9.950;2022-10-16T18:11:42;18.40;99.90
580;DHT22;276;48.392;9.950;2022-10-16T18:14:12;18.40;99.90
580;DHT22;276;48.392;9.950;2022-10-16T18:16:38;18.30;99.90
580;DHT22;276;48.392;9.950;2022-10-16T18:19:10;18.20;99.90
580;DHT22;276;48.392;9.950;2022-10-16T18:21:35;18.10;99.90
580;DHT22;276;48.392;9.950;2022-10-16T18:24:03;18.10;99.90
580;DHT22;276;48.392;9.950;2022-10-16T18:26:29;18.10;99.90
580;DHT22;276;48.392;9.950;2022-10-16T18:28:57;18.10;99.90
580;DHT22;276;48.392;9.950;2022-10-16T18:31:24;18.10;99.90
580;DHT22;276;48.392;9.950;2022-10-16T18:33:50;18.10;99.90
580;DHT22;276;48.392;9.950;2022-10-16T18:36:19;18.00;99.90
580;DHT22;276;48.392;9.950;2022-10-16T18:38:44;18.00;99.90
580;DHT22;276;48.392;9.950;2022-10-16T18:41:15;17.90;99.90
580;DHT22;276;48.392;9.950;2022-10-16T18:43:43;17.90;99.90
580;DHT22;276;48.392;9.950;2022-10-16T18:46:14;17.90;99.90
580;DHT22;276;48.392;9.950;2022-10-16T18:48:42;17.90;99.90
580;DHT22;276;48.392;9.950;2022-10-16T18:51:20;17.90;99.90
580;DHT22;276;48.392;9.950;2022-10-16T18:53:50;17.90;99.90
580;DHT22;276;48.392;9.950;2022-10-16T18:56:18;17.90;99.90
580;DHT22;276;48.392;9.950;2022-10-16T18:58:47;17.80;99.90
580;DHT22;276;48.392;9.950;2022-10-16T19:01:15;17.80;99.90
580;DHT22;276;48.392;9.950;2022-10-16T19:03:42;17.80;99.90
580;DHT22;276;48.392;9.950;2022-10-16T19:06:12;17.80;99.90
580;DHT22;276;48.392;9.950;2022-10-16T19:08:39;17.70;99.90
580;DHT22;276;48.392;9.950;2022-10-16T19:11:09;17.70;99.90
580;DHT22;276;48.392;9.950;2022-10-16T19:13:35;17.70;99.90
580;DHT22;276;48.392;9.950;2022-10-16T19:16:02;17.60;99.90
580;DHT22;276;48.392;9.950;2022-10-16T19:18:31;17.60;99.90
580;DHT22;276;48.392;9.950;2022-10-16T19:21:08;17.60;99.90
580;DHT22;276;48.392;9.950;2022-10-16T19:23:34;17.50;99.90
580;DHT22;276;48.392;9.950;2022-10-16T19:26:10;17.50;99.90
580;DHT22;276;48.392;9.950;2022-10-16T19:28:36;17.50;99.90
580;DHT22;276;48.392;9.950;2022-10-16T19:31:07;17.40;99.90